ICE432 BIKF-EGPF
Flight info
| Callsign | ICE432 |
|---|---|
| Flight time | 1h 46m |
| Altitude | 37000 |
| Route | RIMUM1A RIMUM DCT RUMUX DCT RAPAX DCT ERAKA/N0446F370 DCT ETSOM DCT BRUCE |
| Aircraft | B38M/M-SDE1FGHILORVWXY/HB1 |
Departure
| Time | 2026-05-04 18:41 |
|---|---|
| Airport | Keflavik International Airport (BIKF) |
Arrival
| Time | 2026-05-04 20:27 |
|---|---|
| Airport | Glasgow Airport (EGPF) |
| Time | Latitude | Longitude | Altitude | Speed | Heading |
|---|---|---|---|---|---|
| 2026-05-04 17:58 | 63.99379 | -22.62194 | 141 ft | 0 kts | 238° |
| 2026-05-04 18:25 | 63.99381 | -22.62187 | 145 ft | 3 kts | 238° |
| 2026-05-04 18:26 | 63.99395 | -22.62135 | 145 ft | 4 kts | 238° |
| 2026-05-04 18:26 | 63.99409 | -22.62086 | 145 ft | 2 kts | 238° |
| 2026-05-04 18:26 | 63.99422 | -22.62051 | 145 ft | 4 kts | 199° |
| 2026-05-04 18:26 | 63.99441 | -22.62056 | 145 ft | 2 kts | 150° |
| 2026-05-04 18:27 | 63.99428 | -22.62038 | 145 ft | 4 kts | 150° |
| 2026-05-04 18:27 | 63.99405 | -22.62008 | 144 ft | 3 kts | 150° |
| 2026-05-04 18:27 | 63.99385 | -22.61988 | 146 ft | 4 kts | 166° |
| 2026-05-04 18:27 | 63.99364 | -22.61987 | 145 ft | 4 kts | 179° |
| 2026-05-04 18:28 | 63.99339 | -22.61986 | 148 ft | 2 kts | 180° |
| 2026-05-04 18:28 | 63.99338 | -22.61986 | 148 ft | 1 kts | 180° |
| 2026-05-04 18:31 | 63.99337 | -22.61986 | 148 ft | 1 kts | 180° |
| 2026-05-04 18:31 | 63.99319 | -22.61986 | 144 ft | 4 kts | 180° |
| 2026-05-04 18:31 | 63.99278 | -22.61986 | 145 ft | 7 kts | 180° |
| 2026-05-04 18:31 | 63.99217 | -22.61987 | 145 ft | 10 kts | 180° |
| 2026-05-04 18:32 | 63.99176 | -22.61939 | 145 ft | 8 kts | 107° |
| 2026-05-04 18:32 | 63.99173 | -22.61817 | 147 ft | 7 kts | 90° |
| 2026-05-04 18:32 | 63.99173 | -22.61707 | 150 ft | 7 kts | 89° |
| 2026-05-04 18:32 | 63.99174 | -22.61607 | 152 ft | 6 kts | 89° |
| 2026-05-04 18:33 | 63.99174 | -22.61496 | 154 ft | 8 kts | 90° |
| 2026-05-04 18:33 | 63.99173 | -22.61341 | 158 ft | 10 kts | 90° |
| 2026-05-04 18:33 | 63.99170 | -22.61192 | 161 ft | 9 kts | 108° |
| 2026-05-04 18:33 | 63.99128 | -22.61127 | 163 ft | 8 kts | 175° |
| 2026-05-04 18:34 | 63.99071 | -22.61124 | 165 ft | 9 kts | 180° |
| 2026-05-04 18:34 | 63.98999 | -22.61124 | 166 ft | 13 kts | 180° |
| 2026-05-04 18:34 | 63.98889 | -22.61122 | 166 ft | 14 kts | 172° |
| 2026-05-04 18:34 | 63.98849 | -22.60992 | 169 ft | 9 kts | 122° |
| 2026-05-04 18:35 | 63.98783 | -22.60939 | 168 ft | 12 kts | 178° |
| 2026-05-04 18:35 | 63.98683 | -22.60939 | 169 ft | 16 kts | 181° |
| 2026-05-04 18:35 | 63.98571 | -22.60940 | 171 ft | 17 kts | 180° |
| 2026-05-04 18:35 | 63.98448 | -22.60941 | 169 ft | 19 kts | 180° |
| 2026-05-04 18:36 | 63.98309 | -22.60941 | 168 ft | 21 kts | 180° |
| 2026-05-04 18:36 | 63.98151 | -22.60941 | 169 ft | 23 kts | 180° |
| 2026-05-04 18:36 | 63.97986 | -22.60941 | 171 ft | 24 kts | 180° |
| 2026-05-04 18:36 | 63.97811 | -22.60940 | 172 ft | 26 kts | 180° |
| 2026-05-04 18:37 | 63.97629 | -22.60941 | 170 ft | 25 kts | 179° |
| 2026-05-04 18:37 | 63.97445 | -22.60943 | 168 ft | 28 kts | 180° |
| 2026-05-04 18:37 | 63.97240 | -22.60944 | 161 ft | 27 kts | 179° |
| 2026-05-04 18:37 | 63.97067 | -22.60942 | 155 ft | 25 kts | 180° |
| 2026-05-04 18:38 | 63.96892 | -22.60941 | 149 ft | 25 kts | 180° |
| 2026-05-04 18:38 | 63.96723 | -22.60941 | 143 ft | 20 kts | 180° |
| 2026-05-04 18:38 | 63.96570 | -22.60941 | 138 ft | 22 kts | 180° |
| 2026-05-04 18:38 | 63.96469 | -22.60896 | 138 ft | 11 kts | 131° |
| 2026-05-04 18:39 | 63.96461 | -22.60738 | 142 ft | 9 kts | 88° |
| 2026-05-04 18:39 | 63.96463 | -22.60623 | 146 ft | 7 kts | 88° |
| 2026-05-04 18:39 | 63.96474 | -22.60555 | 147 ft | 8 kts | 45° |
| 2026-05-04 18:39 | 63.96533 | -22.60542 | 149 ft | 12 kts | 358° |
| 2026-05-04 18:40 | 63.96800 | -22.60542 | 158 ft | 72 kts | 360° |
| 2026-05-04 18:40 | 63.97509 | -22.60543 | 175 ft | 127 kts | 359° |
| 2026-05-04 18:40 | 63.98765 | -22.60564 | 358 ft | 138 kts | 359° |
| 2026-05-04 18:40 | 63.99708 | -22.60562 | 689 ft | 135 kts | 356° |
| 2026-05-04 18:41 | 64.00688 | -22.60610 | 812 ft | 148 kts | 356° |
| 2026-05-04 18:41 | 64.01401 | -22.60647 | 921 ft | 154 kts | 356° |
| 2026-05-04 18:41 | 64.02470 | -22.60705 | 1273 ft | 153 kts | 356° |
| 2026-05-04 18:41 | 64.03585 | -22.60714 | 1597 ft | 174 kts | 1° |
| 2026-05-04 18:42 | 64.04890 | -22.60465 | 2000 ft | 203 kts | 18° |
| 2026-05-04 18:42 | 64.06048 | -22.58420 | 2573 ft | 226 kts | 58° |
| 2026-05-04 18:42 | 64.06389 | -22.54957 | 3606 ft | 229 kts | 88° |
| 2026-05-04 18:42 | 64.06343 | -22.51320 | 4478 ft | 235 kts | 87° |
| 2026-05-04 18:43 | 64.06320 | -22.47562 | 5398 ft | 240 kts | 89° |
| 2026-05-04 18:43 | 64.05842 | -22.43761 | 5956 ft | 264 kts | 120° |
| 2026-05-04 18:43 | 64.04467 | -22.40850 | 6622 ft | 277 kts | 154° |
| 2026-05-04 18:43 | 64.02620 | -22.39656 | 7502 ft | 280 kts | 170° |
| 2026-05-04 18:44 | 64.00678 | -22.38739 | 8230 ft | 288 kts | 170° |
| 2026-05-04 18:44 | 63.99375 | -22.38108 | 8831 ft | 290 kts | 170° |
| 2026-05-04 18:44 | 63.96691 | -22.36794 | 9905 ft | 299 kts | 171° |
| 2026-05-04 18:44 | 63.94635 | -22.35782 | 10625 ft | 308 kts | 171° |
| 2026-05-04 18:45 | 63.92476 | -22.34717 | 11001 ft | 327 kts | 171° |
| 2026-05-04 18:45 | 63.90188 | -22.33587 | 11447 ft | 343 kts | 172° |
| 2026-05-04 18:45 | 63.87820 | -22.32422 | 12051 ft | 351 kts | 172° |
| 2026-05-04 18:45 | 63.85410 | -22.31238 | 12837 ft | 357 kts | 173° |
| 2026-05-04 18:46 | 63.82963 | -22.30037 | 13608 ft | 363 kts | 173° |
| 2026-05-04 18:46 | 63.80503 | -22.28832 | 14338 ft | 369 kts | 174° |
| 2026-05-04 18:46 | 63.77983 | -22.27599 | 15039 ft | 374 kts | 174° |
| 2026-05-04 18:46 | 63.75429 | -22.26350 | 15844 ft | 377 kts | 174° |
| 2026-05-04 18:47 | 63.72852 | -22.25095 | 16631 ft | 381 kts | 174° |
| 2026-05-04 18:47 | 63.70242 | -22.23826 | 17385 ft | 386 kts | 174° |
| 2026-05-04 18:47 | 63.67609 | -22.22549 | 18127 ft | 391 kts | 174° |
| 2026-05-04 18:47 | 63.64938 | -22.21254 | 18812 ft | 395 kts | 174° |
| 2026-05-04 18:48 | 63.62238 | -22.19949 | 19444 ft | 399 kts | 174° |
| 2026-05-04 18:48 | 63.59514 | -22.18635 | 20075 ft | 402 kts | 174° |
| 2026-05-04 18:48 | 63.56765 | -22.17310 | 20676 ft | 406 kts | 174° |
| 2026-05-04 18:48 | 63.54010 | -22.15986 | 21323 ft | 408 kts | 174° |
| 2026-05-04 18:49 | 63.51265 | -22.14033 | 21923 ft | 420 kts | 160° |
| 2026-05-04 18:49 | 63.48613 | -22.11207 | 22533 ft | 424 kts | 160° |
| 2026-05-04 18:49 | 63.45922 | -22.08416 | 23097 ft | 428 kts | 160° |
| 2026-05-04 18:49 | 63.43204 | -22.05586 | 23685 ft | 432 kts | 160° |
| 2026-05-04 18:50 | 63.40474 | -22.02744 | 24174 ft | 436 kts | 160° |
| 2026-05-04 18:50 | 63.37713 | -21.99874 | 24673 ft | 438 kts | 160° |
| 2026-05-04 18:50 | 63.34942 | -21.96999 | 25160 ft | 441 kts | 160° |
| 2026-05-04 18:50 | 63.32153 | -21.94112 | 25635 ft | 443 kts | 160° |
| 2026-05-04 18:51 | 63.29360 | -21.91228 | 26105 ft | 446 kts | 160° |
| 2026-05-04 18:51 | 63.26539 | -21.88319 | 26555 ft | 448 kts | 160° |
| 2026-05-04 18:51 | 63.23737 | -21.85438 | 27027 ft | 450 kts | 160° |
| 2026-05-04 18:51 | 63.20886 | -21.82512 | 27463 ft | 453 kts | 160° |
| 2026-05-04 18:52 | 63.18024 | -21.79582 | 27910 ft | 455 kts | 160° |
| 2026-05-04 18:52 | 63.15137 | -21.76632 | 28344 ft | 458 kts | 160° |
| 2026-05-04 18:52 | 63.12235 | -21.73672 | 28770 ft | 460 kts | 160° |
| 2026-05-04 18:52 | 63.09331 | -21.70626 | 29186 ft | 466 kts | 155° |
| 2026-05-04 18:53 | 63.06720 | -21.66346 | 29642 ft | 475 kts | 138° |
| 2026-05-04 18:53 | 63.04472 | -21.60963 | 30029 ft | 479 kts | 135° |
| 2026-05-04 18:53 | 63.02221 | -21.55486 | 30372 ft | 482 kts | 134° |
| 2026-05-04 18:53 | 62.99979 | -21.49976 | 30707 ft | 485 kts | 134° |
| 2026-05-04 18:54 | 62.97734 | -21.44430 | 31039 ft | 488 kts | 134° |
| 2026-05-04 18:54 | 62.95464 | -21.38823 | 31286 ft | 492 kts | 134° |
| 2026-05-04 18:54 | 62.93181 | -21.33198 | 31625 ft | 493 kts | 134° |
| 2026-05-04 18:54 | 62.90903 | -21.27595 | 31946 ft | 495 kts | 134° |
| 2026-05-04 18:55 | 62.88600 | -21.21949 | 32255 ft | 497 kts | 134° |
| 2026-05-04 18:55 | 62.83960 | -21.10611 | 32882 ft | 501 kts | 134° |
| 2026-05-04 18:55 | 62.81653 | -21.04996 | 33178 ft | 503 kts | 134° |
| 2026-05-04 18:56 | 62.79305 | -20.99296 | 33483 ft | 505 kts | 134° |
| 2026-05-04 18:56 | 62.76920 | -20.93520 | 33747 ft | 507 kts | 134° |
| 2026-05-04 18:56 | 62.74588 | -20.87888 | 34049 ft | 509 kts | 134° |
| 2026-05-04 18:56 | 62.72213 | -20.82166 | 34394 ft | 509 kts | 134° |
| 2026-05-04 18:57 | 62.69843 | -20.76472 | 34717 ft | 508 kts | 134° |
| 2026-05-04 18:57 | 62.67467 | -20.70776 | 35033 ft | 508 kts | 134° |
| 2026-05-04 18:57 | 62.65083 | -20.65079 | 35357 ft | 508 kts | 134° |
| 2026-05-04 18:57 | 62.62708 | -20.59416 | 35675 ft | 508 kts | 134° |
| 2026-05-04 18:58 | 62.60327 | -20.53753 | 35983 ft | 507 kts | 134° |
| 2026-05-04 18:58 | 62.57950 | -20.48114 | 36285 ft | 507 kts | 134° |
| 2026-05-04 18:58 | 62.55565 | -20.42472 | 36550 ft | 507 kts | 134° |
| 2026-05-04 18:58 | 62.53180 | -20.36842 | 36872 ft | 507 kts | 134° |
| 2026-05-04 18:59 | 62.50790 | -20.31218 | 37177 ft | 506 kts | 134° |
| 2026-05-04 18:59 | 62.48396 | -20.25595 | 37274 ft | 507 kts | 134° |
| 2026-05-04 18:59 | 62.43622 | -20.14428 | 37266 ft | 505 kts | 135° |
| 2026-05-04 19:00 | 62.38856 | -20.03322 | 37250 ft | 506 kts | 135° |
| 2026-05-04 19:00 | 62.33777 | -19.93026 | 37282 ft | 504 kts | 140° |
| 2026-05-04 19:01 | 62.28540 | -19.82990 | 37229 ft | 503 kts | 141° |
| 2026-05-04 19:01 | 62.23302 | -19.73017 | 37237 ft | 503 kts | 141° |
| 2026-05-04 19:02 | 62.18057 | -19.63080 | 37236 ft | 503 kts | 141° |
| 2026-05-04 19:02 | 62.12805 | -19.53179 | 37236 ft | 503 kts | 141° |
| 2026-05-04 19:03 | 62.07548 | -19.43314 | 37235 ft | 503 kts | 141° |
| 2026-05-04 19:03 | 62.02292 | -19.33501 | 37223 ft | 502 kts | 141° |
| 2026-05-04 19:04 | 61.97063 | -19.23781 | 37222 ft | 502 kts | 141° |
| 2026-05-04 19:04 | 61.91797 | -19.14040 | 37224 ft | 502 kts | 142° |
| 2026-05-04 19:05 | 61.86516 | -19.04318 | 37229 ft | 502 kts | 142° |
| 2026-05-04 19:05 | 61.81244 | -18.94659 | 37193 ft | 502 kts | 142° |
| 2026-05-04 19:06 | 61.75964 | -18.85030 | 37215 ft | 501 kts | 142° |
| 2026-05-04 19:06 | 61.70676 | -18.75432 | 37230 ft | 501 kts | 142° |
| 2026-05-04 19:07 | 61.65397 | -18.65895 | 37218 ft | 501 kts | 142° |
| 2026-05-04 19:07 | 61.60096 | -18.56364 | 37215 ft | 501 kts | 142° |
| 2026-05-04 19:08 | 61.54868 | -18.47000 | 37194 ft | 501 kts | 142° |
| 2026-05-04 19:08 | 61.49694 | -18.37242 | 37191 ft | 502 kts | 130° |
| 2026-05-04 19:09 | 61.45555 | -18.25436 | 37173 ft | 504 kts | 128° |
| 2026-05-04 19:09 | 61.41404 | -18.13636 | 37209 ft | 504 kts | 127° |
| 2026-05-04 19:10 | 61.37260 | -18.01832 | 37207 ft | 504 kts | 127° |
| 2026-05-04 19:10 | 61.33111 | -17.90071 | 37178 ft | 504 kts | 128° |
| 2026-05-04 19:11 | 61.28977 | -17.78408 | 37191 ft | 503 kts | 128° |
| 2026-05-04 19:11 | 61.24815 | -17.66730 | 37213 ft | 503 kts | 128° |
| 2026-05-04 19:12 | 61.18526 | -17.49193 | 37186 ft | 505 kts | 128° |
| 2026-05-04 19:13 | 61.14324 | -17.37548 | 37179 ft | 505 kts | 128° |
| 2026-05-04 19:13 | 61.10108 | -17.25924 | 37155 ft | 504 kts | 128° |
| 2026-05-04 19:14 | 61.05895 | -17.14365 | 37172 ft | 503 kts | 128° |
| 2026-05-04 19:14 | 61.01686 | -17.02875 | 37165 ft | 503 kts | 128° |
| 2026-05-04 19:15 | 60.97457 | -16.91389 | 37161 ft | 503 kts | 128° |
| 2026-05-04 19:15 | 60.93218 | -16.79932 | 37163 ft | 503 kts | 129° |
| 2026-05-04 19:16 | 60.88969 | -16.68504 | 37182 ft | 503 kts | 129° |
| 2026-05-04 19:16 | 60.84716 | -16.57122 | 37156 ft | 503 kts | 129° |
| 2026-05-04 19:17 | 60.80442 | -16.45741 | 37154 ft | 503 kts | 129° |
| 2026-05-04 19:17 | 60.76161 | -16.34396 | 37134 ft | 503 kts | 129° |
| 2026-05-04 19:18 | 60.71903 | -16.23167 | 37139 ft | 504 kts | 129° |
| 2026-05-04 19:18 | 60.67607 | -16.11892 | 37152 ft | 504 kts | 129° |
| 2026-05-04 19:19 | 60.63268 | -16.00563 | 37154 ft | 503 kts | 129° |
| 2026-05-04 19:19 | 60.58979 | -15.89415 | 37147 ft | 503 kts | 129° |
| 2026-05-04 19:20 | 60.54655 | -15.78232 | 37146 ft | 503 kts | 129° |
| 2026-05-04 19:20 | 60.50314 | -15.67060 | 37143 ft | 504 kts | 130° |
| 2026-05-04 19:21 | 60.45957 | -15.55900 | 37130 ft | 505 kts | 130° |
| 2026-05-04 19:21 | 60.41596 | -15.44783 | 37127 ft | 504 kts | 130° |
| 2026-05-04 19:22 | 60.37227 | -15.33700 | 37135 ft | 503 kts | 130° |
| 2026-05-04 19:22 | 60.32860 | -15.22673 | 37126 ft | 503 kts | 130° |
| 2026-05-04 19:23 | 60.28474 | -15.11652 | 37134 ft | 503 kts | 130° |
| 2026-05-04 19:23 | 60.24120 | -15.00763 | 37130 ft | 503 kts | 130° |
| 2026-05-04 19:24 | 60.19696 | -14.89751 | 37113 ft | 503 kts | 130° |
| 2026-05-04 19:24 | 60.15323 | -14.78918 | 37148 ft | 501 kts | 130° |
| 2026-05-04 19:25 | 60.10894 | -14.67997 | 37134 ft | 502 kts | 130° |
| 2026-05-04 19:25 | 60.06511 | -14.57240 | 37132 ft | 502 kts | 131° |
| 2026-05-04 19:26 | 60.02084 | -14.46426 | 37132 ft | 502 kts | 131° |
| 2026-05-04 19:26 | 59.97650 | -14.35644 | 37123 ft | 502 kts | 131° |
| 2026-05-04 19:27 | 59.93225 | -14.24934 | 37123 ft | 500 kts | 131° |
| 2026-05-04 19:27 | 59.88794 | -14.14260 | 37124 ft | 500 kts | 131° |
| 2026-05-04 19:28 | 59.84355 | -14.03615 | 37122 ft | 500 kts | 131° |
| 2026-05-04 19:28 | 59.80653 | -13.94774 | 37121 ft | 500 kts | 131° |
| 2026-05-04 19:29 | 59.76203 | -13.84195 | 37121 ft | 500 kts | 131° |
| 2026-05-04 19:29 | 59.71743 | -13.73636 | 37099 ft | 498 kts | 131° |
| 2026-05-04 19:30 | 59.67293 | -13.63152 | 37110 ft | 497 kts | 131° |
| 2026-05-04 19:30 | 59.62839 | -13.52705 | 37114 ft | 497 kts | 131° |
| 2026-05-04 19:31 | 59.58382 | -13.42298 | 37119 ft | 497 kts | 132° |
| 2026-05-04 19:31 | 59.53907 | -13.31895 | 37116 ft | 497 kts | 132° |
| 2026-05-04 19:32 | 59.49430 | -13.21534 | 37090 ft | 496 kts | 132° |
| 2026-05-04 19:32 | 59.44971 | -13.11261 | 37111 ft | 494 kts | 132° |
| 2026-05-04 19:33 | 59.40498 | -13.01002 | 37116 ft | 495 kts | 132° |
| 2026-05-04 19:33 | 59.36034 | -12.90809 | 37110 ft | 496 kts | 132° |
| 2026-05-04 19:34 | 59.31532 | -12.80575 | 37108 ft | 496 kts | 132° |
| 2026-05-04 19:34 | 59.27030 | -12.70384 | 37110 ft | 495 kts | 133° |
| 2026-05-04 19:35 | 59.22529 | -12.60240 | 37103 ft | 493 kts | 133° |
| 2026-05-04 19:35 | 59.18035 | -12.50158 | 37105 ft | 492 kts | 133° |
| 2026-05-04 19:36 | 59.13536 | -12.40109 | 37108 ft | 492 kts | 133° |
| 2026-05-04 19:36 | 59.09023 | -12.30071 | 37102 ft | 492 kts | 133° |
| 2026-05-04 19:37 | 59.04553 | -12.20172 | 37099 ft | 492 kts | 133° |
| 2026-05-04 19:37 | 59.00024 | -12.10186 | 37104 ft | 491 kts | 133° |
| 2026-05-04 19:38 | 58.95517 | -12.00290 | 37096 ft | 490 kts | 133° |
| 2026-05-04 19:38 | 58.90993 | -11.90402 | 37103 ft | 490 kts | 133° |
| 2026-05-04 19:39 | 58.86461 | -11.80535 | 37102 ft | 490 kts | 133° |
| 2026-05-04 19:39 | 58.81918 | -11.70689 | 37105 ft | 490 kts | 133° |
| 2026-05-04 19:40 | 58.77410 | -11.60957 | 37087 ft | 490 kts | 133° |
| 2026-05-04 19:40 | 58.72870 | -11.51202 | 37098 ft | 488 kts | 133° |
| 2026-05-04 19:41 | 58.68328 | -11.41480 | 37103 ft | 489 kts | 134° |
| 2026-05-04 19:41 | 58.63781 | -11.31792 | 37100 ft | 489 kts | 134° |
| 2026-05-04 19:42 | 58.59210 | -11.22091 | 37100 ft | 490 kts | 134° |
| 2026-05-04 19:42 | 58.54634 | -11.12420 | 37087 ft | 490 kts | 134° |
| 2026-05-04 19:43 | 58.50061 | -11.02796 | 37094 ft | 488 kts | 134° |
| 2026-05-04 19:43 | 58.45493 | -10.93224 | 37098 ft | 488 kts | 134° |
| 2026-05-04 19:44 | 58.40919 | -10.83677 | 37099 ft | 488 kts | 134° |
| 2026-05-04 19:44 | 58.36358 | -10.74196 | 37099 ft | 488 kts | 134° |
| 2026-05-04 19:45 | 58.31772 | -10.64696 | 37093 ft | 488 kts | 134° |
| 2026-05-04 19:45 | 58.27181 | -10.55220 | 37110 ft | 488 kts | 134° |
| 2026-05-04 19:46 | 58.22571 | -10.45744 | 37099 ft | 488 kts | 135° |
| 2026-05-04 19:46 | 58.17948 | -10.36280 | 37090 ft | 488 kts | 135° |
| 2026-05-04 19:47 | 58.13335 | -10.26871 | 37098 ft | 488 kts | 135° |
| 2026-05-04 19:47 | 58.08706 | -10.17468 | 37096 ft | 488 kts | 135° |
| 2026-05-04 19:48 | 58.04077 | -10.08104 | 37085 ft | 487 kts | 135° |
| 2026-05-04 19:48 | 57.99798 | -9.98211 | 37080 ft | 489 kts | 119° |
| 2026-05-04 19:49 | 57.97066 | -9.86567 | 37089 ft | 491 kts | 113° |
| 2026-05-04 19:49 | 57.94490 | -9.74662 | 37093 ft | 492 kts | 112° |
| 2026-05-04 19:50 | 57.91938 | -9.62711 | 37087 ft | 492 kts | 112° |
| 2026-05-04 19:50 | 57.89293 | -9.50850 | 37065 ft | 491 kts | 121° |
| 2026-05-04 19:51 | 57.85232 | -9.40676 | 37031 ft | 490 kts | 129° |
| 2026-05-04 19:51 | 57.81048 | -9.30623 | 37093 ft | 489 kts | 130° |
| 2026-05-04 19:52 | 57.76833 | -9.20650 | 37074 ft | 488 kts | 130° |
| 2026-05-04 19:52 | 57.72610 | -9.10704 | 37098 ft | 488 kts | 130° |
| 2026-05-04 19:53 | 57.68385 | -9.00797 | 37082 ft | 489 kts | 130° |
| 2026-05-04 19:53 | 57.64138 | -8.90880 | 37074 ft | 489 kts | 130° |
| 2026-05-04 19:54 | 57.59875 | -8.80966 | 37057 ft | 488 kts | 131° |
| 2026-05-04 19:54 | 57.55630 | -8.71134 | 37073 ft | 487 kts | 131° |
| 2026-05-04 19:55 | 57.51374 | -8.61318 | 37074 ft | 487 kts | 131° |
| 2026-05-04 19:55 | 57.47105 | -8.51514 | 37091 ft | 487 kts | 131° |
| 2026-05-04 19:56 | 57.42833 | -8.41743 | 37075 ft | 487 kts | 131° |
| 2026-05-04 19:56 | 57.38584 | -8.32064 | 37070 ft | 488 kts | 131° |
| 2026-05-04 19:57 | 57.34299 | -8.22341 | 37069 ft | 486 kts | 131° |
| 2026-05-04 19:57 | 57.30017 | -8.12665 | 37074 ft | 486 kts | 131° |
| 2026-05-04 19:58 | 57.25729 | -8.03016 | 37060 ft | 486 kts | 131° |
| 2026-05-04 19:58 | 57.21438 | -7.93398 | 37068 ft | 486 kts | 131° |
| 2026-05-04 19:59 | 57.17141 | -7.83806 | 37063 ft | 485 kts | 131° |
| 2026-05-04 19:59 | 57.14993 | -7.79025 | 36586 ft | 482 kts | 132° |
| 2026-05-04 19:59 | 57.12850 | -7.74266 | 35819 ft | 483 kts | 132° |
| 2026-05-04 19:59 | 57.10707 | -7.69515 | 35220 ft | 481 kts | 132° |
| 2026-05-04 20:00 | 57.08588 | -7.64828 | 34739 ft | 476 kts | 132° |
| 2026-05-04 20:00 | 57.06480 | -7.60171 | 34265 ft | 472 kts | 133° |
| 2026-05-04 20:00 | 57.04384 | -7.55553 | 33661 ft | 469 kts | 133° |
| 2026-05-04 20:00 | 57.02296 | -7.50960 | 33060 ft | 467 kts | 133° |
| 2026-05-04 20:01 | 57.00223 | -7.46410 | 32530 ft | 463 kts | 133° |
| 2026-05-04 20:01 | 56.98157 | -7.41882 | 32029 ft | 459 kts | 133° |
| 2026-05-04 20:01 | 56.96115 | -7.37416 | 31520 ft | 456 kts | 133° |
| 2026-05-04 20:01 | 56.94082 | -7.32979 | 31009 ft | 453 kts | 133° |
| 2026-05-04 20:02 | 56.92063 | -7.28582 | 30495 ft | 451 kts | 133° |
| 2026-05-04 20:02 | 56.90052 | -7.24207 | 29939 ft | 448 kts | 133° |
| 2026-05-04 20:02 | 56.88050 | -7.19859 | 29382 ft | 445 kts | 133° |
| 2026-05-04 20:02 | 56.86090 | -7.15613 | 28904 ft | 440 kts | 133° |
| 2026-05-04 20:03 | 56.84122 | -7.11358 | 28419 ft | 436 kts | 133° |
| 2026-05-04 20:03 | 56.82171 | -7.07144 | 27945 ft | 433 kts | 133° |
| 2026-05-04 20:03 | 56.80233 | -7.02969 | 27476 ft | 429 kts | 133° |
| 2026-05-04 20:03 | 56.78306 | -6.98823 | 27009 ft | 426 kts | 133° |
| 2026-05-04 20:04 | 56.76403 | -6.94735 | 26554 ft | 423 kts | 133° |
| 2026-05-04 20:04 | 56.74504 | -6.90661 | 26108 ft | 420 kts | 133° |
| 2026-05-04 20:04 | 56.72614 | -6.86618 | 25674 ft | 418 kts | 133° |
| 2026-05-04 20:04 | 56.70736 | -6.82603 | 25229 ft | 415 kts | 133° |
| 2026-05-04 20:05 | 56.68866 | -6.78615 | 24805 ft | 413 kts | 133° |
| 2026-05-04 20:05 | 56.67005 | -6.74651 | 24377 ft | 411 kts | 133° |
| 2026-05-04 20:05 | 56.65153 | -6.70714 | 23931 ft | 409 kts | 134° |
| 2026-05-04 20:05 | 56.63309 | -6.66799 | 23517 ft | 406 kts | 134° |
| 2026-05-04 20:06 | 56.61476 | -6.62913 | 23055 ft | 404 kts | 134° |
| 2026-05-04 20:06 | 56.59659 | -6.59069 | 22636 ft | 400 kts | 134° |
| 2026-05-04 20:06 | 56.57855 | -6.55257 | 22257 ft | 396 kts | 134° |
| 2026-05-04 20:06 | 56.56066 | -6.51484 | 21872 ft | 393 kts | 133° |
| 2026-05-04 20:07 | 56.54292 | -6.47749 | 21492 ft | 389 kts | 133° |
| 2026-05-04 20:07 | 56.52529 | -6.44041 | 21114 ft | 386 kts | 133° |
| 2026-05-04 20:07 | 56.50782 | -6.40374 | 20745 ft | 383 kts | 133° |
| 2026-05-04 20:07 | 56.49048 | -6.36740 | 20365 ft | 380 kts | 133° |
| 2026-05-04 20:08 | 56.47326 | -6.33136 | 19993 ft | 377 kts | 133° |
| 2026-05-04 20:08 | 56.45638 | -6.29609 | 19641 ft | 375 kts | 133° |
| 2026-05-04 20:08 | 56.43941 | -6.26068 | 19278 ft | 372 kts | 133° |
| 2026-05-04 20:08 | 56.42251 | -6.22547 | 18910 ft | 370 kts | 133° |
| 2026-05-04 20:09 | 56.40570 | -6.19051 | 18539 ft | 367 kts | 133° |
| 2026-05-04 20:09 | 56.38901 | -6.15581 | 18165 ft | 365 kts | 133° |
| 2026-05-04 20:09 | 56.37246 | -6.12144 | 17847 ft | 360 kts | 133° |
| 2026-05-04 20:09 | 56.35637 | -6.08810 | 17313 ft | 355 kts | 133° |
| 2026-05-04 20:10 | 56.33950 | -6.05314 | 16625 ft | 367 kts | 133° |
| 2026-05-04 20:10 | 56.32305 | -6.01914 | 16559 ft | 354 kts | 133° |
| 2026-05-04 20:10 | 56.30716 | -5.98635 | 16538 ft | 341 kts | 133° |
| 2026-05-04 20:10 | 56.29181 | -5.95468 | 16505 ft | 333 kts | 133° |
| 2026-05-04 20:11 | 56.27632 | -5.92279 | 16431 ft | 345 kts | 133° |
| 2026-05-04 20:11 | 56.26058 | -5.89041 | 16379 ft | 351 kts | 133° |
| 2026-05-04 20:11 | 56.24442 | -5.85715 | 16331 ft | 354 kts | 131° |
| 2026-05-04 20:11 | 56.23131 | -5.81970 | 16274 ft | 355 kts | 114° |
| 2026-05-04 20:12 | 56.22127 | -5.77920 | 16234 ft | 355 kts | 115° |
| 2026-05-04 20:12 | 56.21096 | -5.73880 | 16195 ft | 355 kts | 115° |
| 2026-05-04 20:12 | 56.20063 | -5.69849 | 16148 ft | 355 kts | 115° |
| 2026-05-04 20:12 | 56.19029 | -5.65822 | 16103 ft | 356 kts | 115° |
| 2026-05-04 20:13 | 56.17990 | -5.61788 | 16063 ft | 355 kts | 115° |
| 2026-05-04 20:13 | 56.16953 | -5.57767 | 15875 ft | 355 kts | 115° |
| 2026-05-04 20:13 | 56.15921 | -5.53774 | 15588 ft | 352 kts | 115° |
| 2026-05-04 20:13 | 56.14893 | -5.49803 | 15256 ft | 350 kts | 115° |
| 2026-05-04 20:14 | 56.13869 | -5.45856 | 14914 ft | 347 kts | 115° |
| 2026-05-04 20:14 | 56.12854 | -5.41950 | 14569 ft | 344 kts | 115° |
| 2026-05-04 20:14 | 56.11846 | -5.38077 | 14230 ft | 342 kts | 115° |
| 2026-05-04 20:14 | 56.11178 | -5.35516 | 13999 ft | 341 kts | 115° |
| 2026-05-04 20:15 | 56.09851 | -5.30435 | 13502 ft | 338 kts | 115° |
| 2026-05-04 20:15 | 56.09179 | -5.27864 | 13252 ft | 337 kts | 115° |
| 2026-05-04 20:15 | 56.08188 | -5.24082 | 12908 ft | 333 kts | 115° |
| 2026-05-04 20:15 | 56.06890 | -5.19134 | 12471 ft | 330 kts | 115° |
| 2026-05-04 20:16 | 56.05918 | -5.15437 | 12138 ft | 327 kts | 115° |
| 2026-05-04 20:16 | 56.05298 | -5.12929 | 11887 ft | 326 kts | 108° |
| 2026-05-04 20:16 | 56.04978 | -5.08958 | 11473 ft | 325 kts | 87° |
| 2026-05-04 20:16 | 56.05035 | -5.04939 | 11149 ft | 322 kts | 88° |
| 2026-05-04 20:17 | 56.05084 | -5.00995 | 10825 ft | 320 kts | 87° |
| 2026-05-04 20:17 | 56.05140 | -4.97034 | 10475 ft | 317 kts | 87° |
| 2026-05-04 20:17 | 56.05199 | -4.93112 | 10252 ft | 312 kts | 87° |
| 2026-05-04 20:17 | 56.05256 | -4.89295 | 10118 ft | 303 kts | 87° |
| 2026-05-04 20:18 | 56.05313 | -4.85575 | 9935 ft | 297 kts | 87° |
| 2026-05-04 20:18 | 56.05369 | -4.81897 | 9595 ft | 295 kts | 87° |
| 2026-05-04 20:18 | 56.05423 | -4.78234 | 9295 ft | 293 kts | 87° |
| 2026-05-04 20:18 | 56.05475 | -4.74596 | 8961 ft | 291 kts | 87° |
| 2026-05-04 20:19 | 56.05526 | -4.70993 | 8669 ft | 289 kts | 87° |
| 2026-05-04 20:19 | 56.05575 | -4.67429 | 8387 ft | 286 kts | 87° |
| 2026-05-04 20:19 | 56.05624 | -4.63880 | 8103 ft | 283 kts | 87° |
| 2026-05-04 20:19 | 56.05670 | -4.60379 | 7826 ft | 281 kts | 87° |
| 2026-05-04 20:20 | 56.05715 | -4.56863 | 7549 ft | 285 kts | 87° |
| 2026-05-04 20:20 | 56.05760 | -4.53338 | 7266 ft | 289 kts | 87° |
| 2026-05-04 20:20 | 56.05806 | -4.49693 | 6964 ft | 290 kts | 87° |
| 2026-05-04 20:20 | 56.05849 | -4.46143 | 6675 ft | 289 kts | 87° |
| 2026-05-04 20:21 | 56.05891 | -4.42566 | 6356 ft | 287 kts | 87° |
| 2026-05-04 20:21 | 56.05932 | -4.39003 | 5999 ft | 286 kts | 87° |
| 2026-05-04 20:21 | 56.06011 | -4.31920 | 5396 ft | 281 kts | 87° |
| 2026-05-04 20:22 | 56.06049 | -4.28450 | 5119 ft | 277 kts | 87° |
| 2026-05-04 20:22 | 56.06026 | -4.25024 | 4787 ft | 275 kts | 97° |
| 2026-05-04 20:22 | 56.05372 | -4.21926 | 4488 ft | 264 kts | 125° |
| 2026-05-04 20:22 | 56.04043 | -4.19857 | 4241 ft | 248 kts | 156° |
| 2026-05-04 20:23 | 56.02418 | -4.19119 | 3932 ft | 237 kts | 181° |
| 2026-05-04 20:23 | 56.00834 | -4.19573 | 3605 ft | 227 kts | 205° |
| 2026-05-04 20:23 | 55.99501 | -4.20925 | 3346 ft | 217 kts | 218° |
| 2026-05-04 20:23 | 55.98344 | -4.22579 | 3059 ft | 210 kts | 226° |
| 2026-05-04 20:24 | 55.97312 | -4.24366 | 2797 ft | 203 kts | 229° |
| 2026-05-04 20:24 | 55.96349 | -4.26158 | 2537 ft | 198 kts | 231° |
| 2026-05-04 20:24 | 55.95412 | -4.27926 | 2262 ft | 194 kts | 231° |
| 2026-05-04 20:24 | 55.94496 | -4.29650 | 2016 ft | 189 kts | 230° |
| 2026-05-04 20:25 | 55.93628 | -4.31274 | 1777 ft | 170 kts | 230° |
| 2026-05-04 20:25 | 55.92848 | -4.32742 | 1540 ft | 160 kts | 231° |
| 2026-05-04 20:25 | 55.92092 | -4.34158 | 1322 ft | 156 kts | 232° |
| 2026-05-04 20:25 | 55.91367 | -4.35515 | 1117 ft | 144 kts | 232° |
| 2026-05-04 20:26 | 55.90689 | -4.36791 | 906 ft | 140 kts | 231° |
| 2026-05-04 20:26 | 55.90015 | -4.38050 | 701 ft | 140 kts | 230° |
| 2026-05-04 20:26 | 55.89348 | -4.39297 | 489 ft | 137 kts | 232° |
| 2026-05-04 20:26 | 55.88697 | -4.40526 | 291 ft | 137 kts | 230° |
| 2026-05-04 20:27 | 55.88039 | -4.41749 | 117 ft | 137 kts | 229° |
| 2026-05-04 20:27 | 55.87411 | -4.42927 | 31 ft | 111 kts | 226° |
| 2026-05-04 20:27 | 55.87035 | -4.43632 | 31 ft | 55 kts | 226° |
| 2026-05-04 20:27 | 55.86777 | -4.44111 | 31 ft | 36 kts | 226° |
| 2026-05-04 20:28 | 55.86659 | -4.44282 | 31 ft | 13 kts | 180° |
| 2026-05-04 20:28 | 55.86619 | -4.44115 | 31 ft | 20 kts | 90° |
| 2026-05-04 20:28 | 55.86636 | -4.43939 | 31 ft | 15 kts | 52° |
| 2026-05-04 20:28 | 55.86720 | -4.43778 | 31 ft | 19 kts | 51° |
| 2026-05-04 20:29 | 55.86724 | -4.43620 | 31 ft | 12 kts | 159° |
| 2026-05-04 20:29 | 55.86660 | -4.43589 | 31 ft | 5 kts | 165° |
| 2026-05-04 20:29 | 55.86592 | -4.43554 | 31 ft | 15 kts | 163° |
| 2026-05-04 20:29 | 55.86528 | -4.43520 | 31 ft | 8 kts | 163° |
| 2026-05-04 20:30 | 55.86497 | -4.43508 | 31 ft | 5 kts | 181° |
| 2026-05-04 20:30 | 55.86476 | -4.43552 | 31 ft | 5 kts | 262° |
| 2026-05-04 20:30 | 55.86477 | -4.43589 | 31 ft | 3 kts | 269° |
| 2026-05-04 20:30 | 55.86475 | -4.43615 | 31 ft | 2 kts | 258° |
| 2026-05-04 20:31 | 55.86473 | -4.43633 | 31 ft | 0 kts | 256° |